createdAt,value
2023-04-23T19:51:20.555Z,11.55
2023-04-23T19:53:51.312Z,11.55
2023-04-23T19:56:23.332Z,11.54
2023-04-23T19:58:50.893Z,11.54
2023-04-23T20:01:17.997Z,11.52
2023-04-23T20:03:51.869Z,11.52
2023-04-23T20:06:21.074Z,11.56
2023-04-23T20:09:21.270Z,11.59
2023-04-23T20:11:48.854Z,11.60
2023-04-23T20:14:34.870Z,11.61
2023-04-23T20:17:01.508Z,11.60
2023-04-23T20:19:28.007Z,11.61
2023-04-23T20:21:54.577Z,11.57
2023-04-23T20:24:23.820Z,11.55
2023-04-23T20:26:50.173Z,11.49
2023-04-23T20:29:16.845Z,11.45
2023-04-23T20:31:43.644Z,11.49
2023-04-23T20:34:10.995Z,11.51
2023-04-23T20:36:38.866Z,11.50
2023-04-23T20:39:05.277Z,11.49
2023-04-23T20:41:36.417Z,11.47
2023-04-23T20:44:04.932Z,11.44
2023-04-23T20:46:32.510Z,11.48
2023-04-23T20:49:00.895Z,11.44
2023-04-23T20:54:02.902Z,11.39
2023-04-23T20:56:29.777Z,11.36
2023-04-23T20:58:57.724Z,11.36
2023-04-23T21:01:25.319Z,11.31
2023-04-23T21:03:53.382Z,11.27
2023-04-23T21:06:23.266Z,11.23
2023-04-23T21:08:49.841Z,11.20
2023-04-23T21:11:18.116Z,11.20
2023-04-23T21:13:45.468Z,11.18
2023-04-23T21:16:14.304Z,11.16
2023-04-23T21:18:41.292Z,11.14
2023-04-23T21:21:08.227Z,11.11
2023-04-23T21:23:36.825Z,11.10
2023-04-23T21:26:03.597Z,11.04
2023-04-23T21:28:32.154Z,11.00
2023-04-23T21:31:05.992Z,10.96
2023-04-23T21:33:56.564Z,10.93
2023-04-23T21:36:28.444Z,10.93
2023-04-23T21:38:54.997Z,10.89
2023-04-23T21:41:21.490Z,10.86
2023-04-23T21:43:47.919Z,10.82
2023-04-23T21:46:14.436Z,10.81
2023-04-23T21:48:40.797Z,10.78
2023-04-23T21:51:07.790Z,10.75
2023-04-23T21:53:34.345Z,10.72
2023-04-23T21:56:00.868Z,10.74
2023-04-23T21:58:27.821Z,10.72
2023-04-23T22:00:54.548Z,10.71
2023-04-23T22:03:37.417Z,10.70
2023-04-23T22:06:05.552Z,10.70
2023-04-23T22:08:33.893Z,10.71
2023-04-23T22:11:00.462Z,10.73
2023-04-23T22:13:26.828Z,10.70
2023-04-23T22:16:26.889Z,10.71
2023-04-23T22:18:54.723Z,10.71
2023-04-23T22:21:21.083Z,10.72
2023-04-23T22:23:47.448Z,10.71
2023-04-23T22:26:21.631Z,10.73
2023-04-23T22:28:48.140Z,10.72
2023-04-23T22:31:14.519Z,10.73
2023-04-23T22:33:42.910Z,10.72
2023-04-23T22:36:14.389Z,10.70
2023-04-23T22:38:40.853Z,10.72
2023-04-23T22:41:09.347Z,10.74
2023-04-23T22:43:35.812Z,10.73
2023-04-23T22:46:04.344Z,10.72
2023-04-23T22:48:37.772Z,10.73
2023-04-23T22:51:15.436Z,10.74
2023-04-23T22:53:43.911Z,10.75
2023-04-23T22:56:21.680Z,10.73
2023-04-23T22:58:48.102Z,10.70
2023-04-23T23:01:14.591Z,10.69
2023-04-23T23:03:42.313Z,10.65
2023-04-23T23:06:08.799Z,10.54
2023-04-23T23:08:35.180Z,10.51
2023-04-23T23:11:01.689Z,10.47
2023-04-23T23:13:29.045Z,10.40
2023-04-23T23:15:55.736Z,10.36
2023-04-23T23:18:22.128Z,10.28
2023-04-23T23:20:48.589Z,10.28
2023-04-23T23:23:14.994Z,10.27
2023-04-23T23:25:44.492Z,10.16
2023-04-23T23:28:20.154Z,10.08
2023-04-23T23:30:47.942Z,10.03
2023-04-23T23:33:14.610Z,9.99
2023-04-23T23:35:42.616Z,9.95
2023-04-23T23:38:10.702Z,9.99
2023-04-23T23:40:44.180Z,10.03
2023-04-23T23:43:10.928Z,10.07
2023-04-23T23:45:37.401Z,10.02
2023-04-23T23:48:14.895Z,9.98
2023-04-23T23:50:41.393Z,9.98
2023-04-23T23:53:09.866Z,9.95
2023-04-23T23:55:38.537Z,9.92
2023-04-23T23:58:04.962Z,9.94
